sensor_id;sensor_type;location;lat;lon;timestamp;P1;durP1;ratioP1;P2;durP2;ratioP2
8861;SDS011;4799;50.996;4.754;2022-08-07T00:01:05;2.73;;;2.53;;
8861;SDS011;4799;50.996;4.754;2022-08-07T00:03:31;2.50;;;2.30;;
8861;SDS011;4799;50.996;4.754;2022-08-07T00:05:58;2.80;;;2.40;;
8861;SDS011;4799;50.996;4.754;2022-08-07T00:08:24;2.67;;;2.30;;
8861;SDS011;4799;50.996;4.754;2022-08-07T00:10:50;3.27;;;2.50;;
8861;SDS011;4799;50.996;4.754;2022-08-07T00:13:16;3.13;;;2.57;;
8861;SDS011;4799;50.996;4.754;2022-08-07T00:15:43;3.57;;;2.50;;
8861;SDS011;4799;50.996;4.754;2022-08-07T00:18:09;2.70;;;2.50;;
8861;SDS011;4799;50.996;4.754;2022-08-07T00:20:35;3.57;;;2.77;;
8861;SDS011;4799;50.996;4.754;2022-08-07T00:23:01;2.93;;;2.70;;
8861;SDS011;4799;50.996;4.754;2022-08-07T00:25:30;3.27;;;2.53;;
8861;SDS011;4799;50.996;4.754;2022-08-07T00:27:56;4.23;;;2.80;;
8861;SDS011;4799;50.996;4.754;2022-08-07T00:30:22;3.23;;;2.90;;
8861;SDS011;4799;50.996;4.754;2022-08-07T00:32:49;3.00;;;2.50;;
8861;SDS011;4799;50.996;4.754;2022-08-07T00:35:18;3.57;;;3.10;;
8861;SDS011;4799;50.996;4.754;2022-08-07T00:37:45;3.07;;;2.70;;
8861;SDS011;4799;50.996;4.754;2022-08-07T00:40:12;3.43;;;3.03;;
8861;SDS011;4799;50.996;4.754;2022-08-07T00:42:38;3.67;;;2.80;;
8861;SDS011;4799;50.996;4.754;2022-08-07T00:45:05;3.13;;;2.83;;
8861;SDS011;4799;50.996;4.754;2022-08-07T00:47:32;3.27;;;2.83;;
8861;SDS011;4799;50.996;4.754;2022-08-07T00:49:58;3.33;;;2.73;;
8861;SDS011;4799;50.996;4.754;2022-08-07T00:52:24;3.73;;;3.07;;
8861;SDS011;4799;50.996;4.754;2022-08-07T00:54:50;3.00;;;2.70;;
8861;SDS011;4799;50.996;4.754;2022-08-07T00:57:16;3.77;;;3.00;;
8861;SDS011;4799;50.996;4.754;2022-08-07T00:59:42;3.07;;;2.40;;
8861;SDS011;4799;50.996;4.754;2022-08-07T01:02:08;2.77;;;2.40;;
8861;SDS011;4799;50.996;4.754;2022-08-07T01:04:35;3.47;;;2.70;;
8861;SDS011;4799;50.996;4.754;2022-08-07T01:07:01;3.73;;;3.30;;
8861;SDS011;4799;50.996;4.754;2022-08-07T01:09:27;4.10;;;3.27;;
8861;SDS011;4799;50.996;4.754;2022-08-07T01:11:53;3.90;;;2.67;;
8861;SDS011;4799;50.996;4.754;2022-08-07T01:14:20;4.77;;;2.80;;
8861;SDS011;4799;50.996;4.754;2022-08-07T01:16:47;3.10;;;2.80;;
8861;SDS011;4799;50.996;4.754;2022-08-07T01:19:13;3.03;;;2.80;;
8861;SDS011;4799;50.996;4.754;2022-08-07T01:21:40;3.40;;;3.10;;
8861;SDS011;4799;50.996;4.754;2022-08-07T01:24:07;3.97;;;3.30;;
8861;SDS011;4799;50.996;4.754;2022-08-07T01:26:34;3.70;;;3.30;;
8861;SDS011;4799;50.996;4.754;2022-08-07T01:29:00;5.17;;;3.53;;
8861;SDS011;4799;50.996;4.754;2022-08-07T01:31:26;4.10;;;3.23;;
8861;SDS011;4799;50.996;4.754;2022-08-07T01:33:56;4.40;;;3.70;;
8861;SDS011;4799;50.996;4.754;2022-08-07T01:36:23;3.00;;;2.70;;
8861;SDS011;4799;50.996;4.754;2022-08-07T01:38:52;3.00;;;2.70;;
8861;SDS011;4799;50.996;4.754;2022-08-07T01:41:20;3.37;;;2.57;;
8861;SDS011;4799;50.996;4.754;2022-08-07T01:43:46;3.63;;;3.33;;
8861;SDS011;4799;50.996;4.754;2022-08-07T01:46:13;4.00;;;3.20;;
8861;SDS011;4799;50.996;4.754;2022-08-07T01:48:41;5.43;;;2.90;;
8861;SDS011;4799;50.996;4.754;2022-08-07T01:51:10;3.40;;;3.10;;
8861;SDS011;4799;50.996;4.754;2022-08-07T01:53:49;4.27;;;3.50;;
8861;SDS011;4799;50.996;4.754;2022-08-07T01:56:24;4.77;;;4.37;;
8861;SDS011;4799;50.996;4.754;2022-08-07T01:58:53;6.27;;;5.67;;
8861;SDS011;4799;50.996;4.754;2022-08-07T02:01:26;5.17;;;4.00;;
8861;SDS011;4799;50.996;4.754;2022-08-07T02:04:00;3.80;;;3.50;;
8861;SDS011;4799;50.996;4.754;2022-08-07T02:06:31;3.80;;;3.03;;
8861;SDS011;4799;50.996;4.754;2022-08-07T02:09:02;3.70;;;3.33;;
8861;SDS011;4799;50.996;4.754;2022-08-07T02:11:34;3.90;;;3.60;;
8861;SDS011;4799;50.996;4.754;2022-08-07T02:14:02;4.20;;;3.80;;
8861;SDS011;4799;50.996;4.754;2022-08-07T02:16:31;3.83;;;3.53;;
8861;SDS011;4799;50.996;4.754;2022-08-07T02:18:59;4.37;;;3.93;;
8861;SDS011;4799;50.996;4.754;2022-08-07T02:21:27;5.37;;;4.83;;
8861;SDS011;4799;50.996;4.754;2022-08-07T02:23:54;6.60;;;4.90;;
8861;SDS011;4799;50.996;4.754;2022-08-07T02:26:22;5.30;;;4.90;;
8861;SDS011;4799;50.996;4.754;2022-08-07T02:28:47;4.43;;;4.03;;
8861;SDS011;4799;50.996;4.754;2022-08-07T02:31:14;4.90;;;4.20;;
8861;SDS011;4799;50.996;4.754;2022-08-07T02:33:41;5.40;;;4.57;;
8861;SDS011;4799;50.996;4.754;2022-08-07T02:36:07;5.97;;;4.20;;
8861;SDS011;4799;50.996;4.754;2022-08-07T02:38:34;4.30;;;3.90;;
8861;SDS011;4799;50.996;4.754;2022-08-07T02:41:02;3.73;;;3.30;;
8861;SDS011;4799;50.996;4.754;2022-08-07T02:43:28;5.93;;;3.67;;
8861;SDS011;4799;50.996;4.754;2022-08-07T02:45:58;4.03;;;3.50;;
8861;SDS011;4799;50.996;4.754;2022-08-07T02:48:25;5.20;;;4.70;;
8861;SDS011;4799;50.996;4.754;2022-08-07T02:50:51;5.57;;;4.93;;
8861;SDS011;4799;50.996;4.754;2022-08-07T02:53:25;6.33;;;5.00;;
8861;SDS011;4799;50.996;4.754;2022-08-07T02:56:00;5.43;;;4.70;;
8861;SDS011;4799;50.996;4.754;2022-08-07T02:58:28;4.17;;;3.80;;
8861;SDS011;4799;50.996;4.754;2022-08-07T03:00:56;5.63;;;4.10;;
8861;SDS011;4799;50.996;4.754;2022-08-07T03:03:23;5.80;;;4.07;;
8861;SDS011;4799;50.996;4.754;2022-08-07T03:05:52;4.40;;;3.90;;
8861;SDS011;4799;50.996;4.754;2022-08-07T03:08:20;4.53;;;3.93;;
8861;SDS011;4799;50.996;4.754;2022-08-07T03:10:46;4.73;;;4.20;;
8861;SDS011;4799;50.996;4.754;2022-08-07T03:13:16;4.60;;;4.20;;
8861;SDS011;4799;50.996;4.754;2022-08-07T03:15:42;4.37;;;3.97;;
8861;SDS011;4799;50.996;4.754;2022-08-07T03:18:09;5.00;;;4.50;;
8861;SDS011;4799;50.996;4.754;2022-08-07T03:20:35;5.60;;;3.97;;
8861;SDS011;4799;50.996;4.754;2022-08-07T03:23:03;4.50;;;4.00;;
8861;SDS011;4799;50.996;4.754;2022-08-07T03:25:31;4.07;;;3.73;;
8861;SDS011;4799;50.996;4.754;2022-08-07T03:27:58;3.90;;;3.60;;
8861;SDS011;4799;50.996;4.754;2022-08-07T03:30:26;4.07;;;3.77;;
8861;SDS011;4799;50.996;4.754;2022-08-07T03:32:53;4.20;;;3.80;;
8861;SDS011;4799;50.996;4.754;2022-08-07T03:35:21;3.90;;;3.47;;
8861;SDS011;4799;50.996;4.754;2022-08-07T03:37:55;4.13;;;3.73;;
8861;SDS011;4799;50.996;4.754;2022-08-07T03:40:23;3.90;;;3.60;;
8861;SDS011;4799;50.996;4.754;2022-08-07T03:42:50;4.57;;;3.93;;
8861;SDS011;4799;50.996;4.754;2022-08-07T03:45:17;4.23;;;3.80;;
8861;SDS011;4799;50.996;4.754;2022-08-07T03:47:45;4.20;;;3.77;;
8861;SDS011;4799;50.996;4.754;2022-08-07T03:50:11;4.10;;;3.70;;
8861;SDS011;4799;50.996;4.754;2022-08-07T03:52:36;4.13;;;3.80;;
8861;SDS011;4799;50.996;4.754;2022-08-07T03:55:03;3.60;;;3.30;;
8861;SDS011;4799;50.996;4.754;2022-08-07T03:57:30;3.63;;;3.33;;
8861;SDS011;4799;50.996;4.754;2022-08-07T03:59:57;3.70;;;3.40;;
8861;SDS011;4799;50.996;4.754;2022-08-07T04:02:25;4.23;;;3.60;;
8861;SDS011;4799;50.996;4.754;2022-08-07T04:04:51;3.77;;;3.23;;
8861;SDS011;4799;50.996;4.754;2022-08-07T04:07:17;4.47;;;3.60;;
8861;SDS011;4799;50.996;4.754;2022-08-07T04:09:47;4.17;;;3.77;;
8861;SDS011;4799;50.996;4.754;2022-08-07T04:12:14;5.23;;;4.10;;
8861;SDS011;4799;50.996;4.754;2022-08-07T04:14:41;4.20;;;3.90;;
8861;SDS011;4799;50.996;4.754;2022-08-07T04:17:08;4.90;;;4.47;;
8861;SDS011;4799;50.996;4.754;2022-08-07T04:19:34;5.37;;;4.50;;
8861;SDS011;4799;50.996;4.754;2022-08-07T04:22:03;5.27;;;3.57;;
8861;SDS011;4799;50.996;4.754;2022-08-07T04:24:29;4.30;;;3.90;;
8861;SDS011;4799;50.996;4.754;2022-08-07T04:26:55;4.50;;;4.10;;
8861;SDS011;4799;50.996;4.754;2022-08-07T04:29:22;4.77;;;4.27;;
8861;SDS011;4799;50.996;4.754;2022-08-07T04:31:48;4.23;;;3.93;;
8861;SDS011;4799;50.996;4.754;2022-08-07T04:34:14;4.47;;;3.70;;
8861;SDS011;4799;50.996;4.754;2022-08-07T04:36:41;4.07;;;3.40;;
8861;SDS011;4799;50.996;4.754;2022-08-07T04:39:07;5.40;;;3.77;;
8861;SDS011;4799;50.996;4.754;2022-08-07T04:41:34;5.10;;;4.20;;
8861;SDS011;4799;50.996;4.754;2022-08-07T04:44:00;4.40;;;4.00;;
8861;SDS011;4799;50.996;4.754;2022-08-07T04:46:35;4.53;;;4.13;;
8861;SDS011;4799;50.996;4.754;2022-08-07T04:49:27;5.27;;;4.70;;
8861;SDS011;4799;50.996;4.754;2022-08-07T04:52:04;5.30;;;4.80;;
8861;SDS011;4799;50.996;4.754;2022-08-07T05:00:12;5.80;;;5.30;;
8861;SDS011;4799;50.996;4.754;2022-08-07T05:02:59;6.03;;;5.43;;
8861;SDS011;4799;50.996;4.754;2022-08-07T05:10:38;6.93;;;6.33;;
8861;SDS011;4799;50.996;4.754;2022-08-07T05:13:15;7.27;;;6.57;;
8861;SDS011;4799;50.996;4.754;2022-08-07T05:16:08;7.47;;;6.87;;
8861;SDS011;4799;50.996;4.754;2022-08-07T05:18:35;7.67;;;6.87;;
8861;SDS011;4799;50.996;4.754;2022-08-07T05:21:08;6.87;;;6.30;;
8861;SDS011;4799;50.996;4.754;2022-08-07T05:23:41;7.27;;;6.67;;
8861;SDS011;4799;50.996;4.754;2022-08-07T05:26:13;7.40;;;6.70;;
8861;SDS011;4799;50.996;4.754;2022-08-07T05:28:43;7.03;;;6.37;;
8861;SDS011;4799;50.996;4.754;2022-08-07T05:31:10;7.30;;;6.57;;
8861;SDS011;4799;50.996;4.754;2022-08-07T05:33:37;8.13;;;7.53;;
8861;SDS011;4799;50.996;4.754;2022-08-07T05:36:08;8.67;;;8.03;;
8861;SDS011;4799;50.996;4.754;2022-08-07T05:38:36;10.40;;;9.43;;
8861;SDS011;4799;50.996;4.754;2022-08-07T05:41:03;10.60;;;9.60;;
8861;SDS011;4799;50.996;4.754;2022-08-07T05:43:29;10.40;;;9.50;;
8861;SDS011;4799;50.996;4.754;2022-08-07T05:45:55;9.67;;;8.90;;
8861;SDS011;4799;50.996;4.754;2022-08-07T05:48:22;11.60;;;10.50;;
8861;SDS011;4799;50.996;4.754;2022-08-07T05:50:48;10.37;;;9.37;;
8861;SDS011;4799;50.996;4.754;2022-08-07T05:53:14;11.50;;;10.33;;
8861;SDS011;4799;50.996;4.754;2022-08-07T05:55:40;10.13;;;9.23;;
8861;SDS011;4799;50.996;4.754;2022-08-07T05:58:06;10.77;;;9.87;;
8861;SDS011;4799;50.996;4.754;2022-08-07T06:00:35;10.67;;;9.60;;
8861;SDS011;4799;50.996;4.754;2022-08-07T06:03:04;10.23;;;9.43;;
8861;SDS011;4799;50.996;4.754;2022-08-07T06:05:33;9.90;;;8.90;;
8861;SDS011;4799;50.996;4.754;2022-08-07T06:07:58;10.13;;;9.33;;
8861;SDS011;4799;50.996;4.754;2022-08-07T06:10:26;9.70;;;8.90;;
8861;SDS011;4799;50.996;4.754;2022-08-07T06:12:53;9.97;;;9.07;;
8861;SDS011;4799;50.996;4.754;2022-08-07T06:15:19;9.67;;;8.77;;
8861;SDS011;4799;50.996;4.754;2022-08-07T06:17:46;10.30;;;9.20;;
8861;SDS011;4799;50.996;4.754;2022-08-07T06:20:13;9.77;;;8.87;;
8861;SDS011;4799;50.996;4.754;2022-08-07T06:22:39;9.47;;;8.67;;
8861;SDS011;4799;50.996;4.754;2022-08-07T06:25:08;9.20;;;8.30;;
8861;SDS011;4799;50.996;4.754;2022-08-07T06:27:34;8.93;;;8.13;;
8861;SDS011;4799;50.996;4.754;2022-08-07T06:30:00;9.53;;;8.53;;
8861;SDS011;4799;50.996;4.754;2022-08-07T06:32:26;9.07;;;8.23;;
8861;SDS011;4799;50.996;4.754;2022-08-07T06:34:51;9.80;;;8.10;;
8861;SDS011;4799;50.996;4.754;2022-08-07T06:37:17;9.27;;;8.27;;
8861;SDS011;4799;50.996;4.754;2022-08-07T06:39:43;8.57;;;7.80;;
8861;SDS011;4799;50.996;4.754;2022-08-07T06:42:21;8.63;;;7.87;;
8861;SDS011;4799;50.996;4.754;2022-08-07T06:44:54;9.33;;;8.40;;
8861;SDS011;4799;50.996;4.754;2022-08-07T06:47:21;9.00;;;8.10;;
8861;SDS011;4799;50.996;4.754;2022-08-07T06:49:47;9.23;;;8.30;;
8861;SDS011;4799;50.996;4.754;2022-08-07T06:52:13;9.07;;;8.17;;
8861;SDS011;4799;50.996;4.754;2022-08-07T06:54:41;8.63;;;7.30;;
8861;SDS011;4799;50.996;4.754;2022-08-07T06:57:09;8.47;;;7.67;;
8861;SDS011;4799;50.996;4.754;2022-08-07T06:59:36;8.87;;;8.03;;
8861;SDS011;4799;50.996;4.754;2022-08-07T07:02:11;8.63;;;7.60;;
8861;SDS011;4799;50.996;4.754;2022-08-07T07:04:42;8.60;;;7.77;;
8861;SDS011;4799;50.996;4.754;2022-08-07T07:07:09;8.23;;;7.53;;
8861;SDS011;4799;50.996;4.754;2022-08-07T07:09:35;8.53;;;7.73;;
8861;SDS011;4799;50.996;4.754;2022-08-07T07:17:26;8.10;;;7.30;;
8861;SDS011;4799;50.996;4.754;2022-08-07T07:20:17;8.30;;;6.83;;
8861;SDS011;4799;50.996;4.754;2022-08-07T07:22:45;8.30;;;7.50;;
8861;SDS011;4799;50.996;4.754;2022-08-07T07:25:13;7.47;;;6.70;;
8861;SDS011;4799;50.996;4.754;2022-08-07T07:27:46;7.80;;;6.87;;
8861;SDS011;4799;50.996;4.754;2022-08-07T07:30:20;7.70;;;7.00;;
8861;SDS011;4799;50.996;4.754;2022-08-07T07:32:49;6.87;;;6.23;;
8861;SDS011;4799;50.996;4.754;2022-08-07T07:35:17;6.97;;;6.37;;
8861;SDS011;4799;50.996;4.754;2022-08-07T07:37:44;6.80;;;6.20;;
8861;SDS011;4799;50.996;4.754;2022-08-07T07:40:17;7.50;;;6.40;;
8861;SDS011;4799;50.996;4.754;2022-08-07T07:42:45;7.70;;;6.70;;
8861;SDS011;4799;50.996;4.754;2022-08-07T07:45:14;7.07;;;6.37;;
8861;SDS011;4799;50.996;4.754;2022-08-07T07:47:43;8.27;;;6.60;;
8861;SDS011;4799;50.996;4.754;2022-08-07T07:50:12;6.73;;;6.03;;
8861;SDS011;4799;50.996;4.754;2022-08-07T07:52:43;6.80;;;5.90;;
8861;SDS011;4799;50.996;4.754;2022-08-07T07:55:09;6.60;;;6.00;;
8861;SDS011;4799;50.996;4.754;2022-08-07T07:57:38;6.57;;;5.77;;
8861;SDS011;4799;50.996;4.754;2022-08-07T08:00:09;6.57;;;5.63;;
8861;SDS011;4799;50.996;4.754;2022-08-07T08:02:36;6.13;;;5.53;;
8861;SDS011;4799;50.996;4.754;2022-08-07T08:05:06;5.70;;;5.20;;
8861;SDS011;4799;50.996;4.754;2022-08-07T08:07:33;5.60;;;5.10;;
8861;SDS011;4799;50.996;4.754;2022-08-07T08:10:02;6.50;;;5.37;;
8861;SDS011;4799;50.996;4.754;2022-08-07T08:12:30;5.90;;;5.40;;
8861;SDS011;4799;50.996;4.754;2022-08-07T08:14:57;5.77;;;4.83;;
8861;SDS011;4799;50.996;4.754;2022-08-07T08:17:22;5.17;;;4.17;;
8861;SDS011;4799;50.996;4.754;2022-08-07T08:19:52;7.13;;;4.63;;
8861;SDS011;4799;50.996;4.754;2022-08-07T08:22:21;5.10;;;4.60;;
8861;SDS011;4799;50.996;4.754;2022-08-07T08:25:07;5.37;;;4.03;;
8861;SDS011;4799;50.996;4.754;2022-08-07T08:27:52;6.13;;;4.30;;
8861;SDS011;4799;50.996;4.754;2022-08-07T08:30:20;8.53;;;4.37;;
8861;SDS011;4799;50.996;4.754;2022-08-07T08:32:51;5.00;;;4.50;;
8861;SDS011;4799;50.996;4.754;2022-08-07T08:35:21;5.07;;;4.47;;
8861;SDS011;4799;50.996;4.754;2022-08-07T08:37:48;4.30;;;3.80;;
8861;SDS011;4799;50.996;4.754;2022-08-07T08:40:21;4.47;;;3.50;;
8861;SDS011;4799;50.996;4.754;2022-08-07T08:42:53;4.40;;;4.00;;
8861;SDS011;4799;50.996;4.754;2022-08-07T08:50:53;4.20;;;3.80;;
8861;SDS011;4799;50.996;4.754;2022-08-07T08:53:43;3.70;;;3.40;;
8861;SDS011;4799;50.996;4.754;2022-08-07T08:56:22;4.53;;;3.73;;
8861;SDS011;4799;50.996;4.754;2022-08-07T08:58:53;4.10;;;3.60;;
8861;SDS011;4799;50.996;4.754;2022-08-07T09:04:46;4.10;;;3.63;;
8861;SDS011;4799;50.996;4.754;2022-08-07T09:07:18;4.67;;;3.40;;
8861;SDS011;4799;50.996;4.754;2022-08-07T09:10:33;3.67;;;3.37;;
8861;SDS011;4799;50.996;4.754;2022-08-07T09:13:00;3.60;;;3.30;;
8861;SDS011;4799;50.996;4.754;2022-08-07T09:23:28;3.87;;;3.53;;
8861;SDS011;4799;50.996;4.754;2022-08-07T09:28:58;3.47;;;3.17;;
8861;SDS011;4799;50.996;4.754;2022-08-07T09:37:18;3.97;;;3.40;;
8861;SDS011;4799;50.996;4.754;2022-08-07T09:39:57;6.10;;;3.30;;
8861;SDS011;4799;50.996;4.754;2022-08-07T09:42:37;4.20;;;3.10;;
8861;SDS011;4799;50.996;4.754;2022-08-07T09:53:33;4.03;;;3.10;;
8861;SDS011;4799;50.996;4.754;2022-08-07T10:02:38;4.07;;;3.03;;
8861;SDS011;4799;50.996;4.754;2022-08-07T10:08:19;4.67;;;3.23;;
8861;SDS011;4799;50.996;4.754;2022-08-07T10:22:43;5.20;;;2.97;;
8861;SDS011;4799;50.996;4.754;2022-08-07T10:28:40;3.27;;;2.97;;
8861;SDS011;4799;50.996;4.754;2022-08-07T10:40:33;3.30;;;3.00;;
8861;SDS011;4799;50.996;4.754;2022-08-07T10:43:25;3.40;;;2.87;;
8861;SDS011;4799;50.996;4.754;2022-08-07T10:45:57;4.13;;;2.70;;
8861;SDS011;4799;50.996;4.754;2022-08-07T10:48:29;3.23;;;2.90;;
8861;SDS011;4799;50.996;4.754;2022-08-07T11:08:06;3.17;;;2.80;;
8861;SDS011;4799;50.996;4.754;2022-08-07T11:16:27;3.93;;;2.70;;
8861;SDS011;4799;50.996;4.754;2022-08-07T11:21:58;3.93;;;2.77;;
8861;SDS011;4799;50.996;4.754;2022-08-07T11:24:36;3.85;;;2.80;;
8861;SDS011;4799;50.996;4.754;2022-08-07T11:30:15;2.77;;;2.57;;
8861;SDS011;4799;50.996;4.754;2022-08-07T11:32:56;3.20;;;2.50;;
8861;SDS011;4799;50.996;4.754;2022-08-07T11:35:35;3.50;;;3.00;;
8861;SDS011;4799;50.996;4.754;2022-08-07T11:38:17;3.57;;;2.80;;
8861;SDS011;4799;50.996;4.754;2022-08-07T11:41:03;3.07;;;2.53;;
8861;SDS011;4799;50.996;4.754;2022-08-07T11:43:41;3.80;;;2.60;;
8861;SDS011;4799;50.996;4.754;2022-08-07T11:46:38;5.87;;;2.73;;
8861;SDS011;4799;50.996;4.754;2022-08-07T11:57:41;3.67;;;2.37;;
8861;SDS011;4799;50.996;4.754;2022-08-07T12:00:24;2.60;;;2.40;;
8861;SDS011;4799;50.996;4.754;2022-08-07T12:05:54;3.60;;;2.40;;
8861;SDS011;4799;50.996;4.754;2022-08-07T12:14:45;3.07;;;2.50;;
8861;SDS011;4799;50.996;4.754;2022-08-07T12:17:13;2.87;;;2.53;;
8861;SDS011;4799;50.996;4.754;2022-08-07T12:19:48;2.90;;;2.60;;
8861;SDS011;4799;50.996;4.754;2022-08-07T12:22:24;2.73;;;2.50;;
8861;SDS011;4799;50.996;4.754;2022-08-07T12:24:58;3.27;;;2.80;;
8861;SDS011;4799;50.996;4.754;2022-08-07T12:28:01;3.50;;;2.43;;
8861;SDS011;4799;50.996;4.754;2022-08-07T12:30:36;3.33;;;2.47;;
8861;SDS011;4799;50.996;4.754;2022-08-07T12:33:06;3.90;;;2.60;;
8861;SDS011;4799;50.996;4.754;2022-08-07T12:35:37;2.97;;;2.33;;
8861;SDS011;4799;50.996;4.754;2022-08-07T12:38:04;4.43;;;2.77;;
8861;SDS011;4799;50.996;4.754;2022-08-07T12:40:33;3.07;;;2.77;;
8861;SDS011;4799;50.996;4.754;2022-08-07T12:43:03;3.50;;;2.93;;
8861;SDS011;4799;50.996;4.754;2022-08-07T12:45:46;4.27;;;2.40;;
8861;SDS011;4799;50.996;4.754;2022-08-07T12:51:23;3.30;;;2.53;;
8861;SDS011;4799;50.996;4.754;2022-08-07T12:56:38;2.67;;;2.47;;
8861;SDS011;4799;50.996;4.754;2022-08-07T12:59:10;2.67;;;2.30;;
8861;SDS011;4799;50.996;4.754;2022-08-07T13:02:03;4.63;;;2.90;;
8861;SDS011;4799;50.996;4.754;2022-08-07T13:13:54;3.07;;;2.60;;
8861;SDS011;4799;50.996;4.754;2022-08-07T13:19:32;2.60;;;2.40;;
8861;SDS011;4799;50.996;4.754;2022-08-07T13:22:30;2.53;;;2.33;;
8861;SDS011;4799;50.996;4.754;2022-08-07T13:27:37;2.70;;;2.20;;
8861;SDS011;4799;50.996;4.754;2022-08-07T13:30:13;2.70;;;2.50;;
8861;SDS011;4799;50.996;4.754;2022-08-07T13:35:47;4.07;;;2.03;;
8861;SDS011;4799;50.996;4.754;2022-08-07T13:38:20;2.60;;;2.20;;
8861;SDS011;4799;50.996;4.754;2022-08-07T13:43:48;2.87;;;2.20;;
8861;SDS011;4799;50.996;4.754;2022-08-07T13:46:17;2.77;;;2.10;;
8861;SDS011;4799;50.996;4.754;2022-08-07T13:48:47;4.10;;;2.33;;
8861;SDS011;4799;50.996;4.754;2022-08-07T13:51:16;2.50;;;2.30;;
8861;SDS011;4799;50.996;4.754;2022-08-07T13:53:45;3.03;;;2.20;;
8861;SDS011;4799;50.996;4.754;2022-08-07T13:56:18;4.67;;;2.20;;
8861;SDS011;4799;50.996;4.754;2022-08-07T13:58:46;3.57;;;2.67;;
8861;SDS011;4799;50.996;4.754;2022-08-07T14:01:37;2.80;;;1.93;;
8861;SDS011;4799;50.996;4.754;2022-08-07T14:04:13;3.53;;;2.30;;
8861;SDS011;4799;50.996;4.754;2022-08-07T14:06:43;2.30;;;2.10;;
8861;SDS011;4799;50.996;4.754;2022-08-07T14:09:15;2.77;;;2.20;;
8861;SDS011;4799;50.996;4.754;2022-08-07T14:11:45;2.47;;;2.27;;
8861;SDS011;4799;50.996;4.754;2022-08-07T14:14:16;4.87;;;2.40;;
8861;SDS011;4799;50.996;4.754;2022-08-07T14:16:45;2.53;;;1.90;;
8861;SDS011;4799;50.996;4.754;2022-08-07T14:19:17;2.67;;;2.33;;
8861;SDS011;4799;50.996;4.754;2022-08-07T14:21:48;2.83;;;2.10;;
8861;SDS011;4799;50.996;4.754;2022-08-07T14:24:25;2.40;;;2.20;;
8861;SDS011;4799;50.996;4.754;2022-08-07T14:26:58;3.17;;;2.20;;
8861;SDS011;4799;50.996;4.754;2022-08-07T14:29:28;3.33;;;2.20;;
8861;SDS011;4799;50.996;4.754;2022-08-07T14:32:00;2.30;;;2.10;;
8861;SDS011;4799;50.996;4.754;2022-08-07T14:34:30;2.30;;;2.10;;
8861;SDS011;4799;50.996;4.754;2022-08-07T14:36:58;2.10;;;1.90;;
8861;SDS011;4799;50.996;4.754;2022-08-07T14:39:25;2.97;;;1.90;;
8861;SDS011;4799;50.996;4.754;2022-08-07T14:41:51;2.73;;;1.90;;
8861;SDS011;4799;50.996;4.754;2022-08-07T14:44:18;2.73;;;1.93;;
8861;SDS011;4799;50.996;4.754;2022-08-07T14:46:46;1.87;;;1.70;;
8861;SDS011;4799;50.996;4.754;2022-08-07T14:49:14;2.40;;;2.20;;
8861;SDS011;4799;50.996;4.754;2022-08-07T14:51:42;2.93;;;2.00;;
8861;SDS011;4799;50.996;4.754;2022-08-07T14:54:09;2.77;;;1.87;;
8861;SDS011;4799;50.996;4.754;2022-08-07T14:56:40;2.50;;;1.97;;
8861;SDS011;4799;50.996;4.754;2022-08-07T14:59:07;3.93;;;1.83;;
8861;SDS011;4799;50.996;4.754;2022-08-07T15:01:36;3.27;;;1.80;;
8861;SDS011;4799;50.996;4.754;2022-08-07T15:04:05;2.23;;;1.83;;
8861;SDS011;4799;50.996;4.754;2022-08-07T15:06:33;2.33;;;1.90;;
8861;SDS011;4799;50.996;4.754;2022-08-07T15:09:12;2.20;;;2.00;;
8861;SDS011;4799;50.996;4.754;2022-08-07T15:11:41;2.70;;;2.10;;
8861;SDS011;4799;50.996;4.754;2022-08-07T15:14:29;2.07;;;1.83;;
8861;SDS011;4799;50.996;4.754;2022-08-07T15:17:10;1.93;;;1.83;;
8861;SDS011;4799;50.996;4.754;2022-08-07T15:19:38;2.20;;;2.00;;
8861;SDS011;4799;50.996;4.754;2022-08-07T15:22:15;2.03;;;1.83;;
8861;SDS011;4799;50.996;4.754;2022-08-07T15:24:44;1.70;;;1.60;;
8861;SDS011;4799;50.996;4.754;2022-08-07T15:27:20;2.20;;;1.77;;
8861;SDS011;4799;50.996;4.754;2022-08-07T15:29:59;2.30;;;1.73;;
8861;SDS011;4799;50.996;4.754;2022-08-07T15:32:31;2.07;;;1.80;;
8861;SDS011;4799;50.996;4.754;2022-08-07T15:34:58;2.30;;;1.70;;
8861;SDS011;4799;50.996;4.754;2022-08-07T15:37:29;2.17;;;1.90;;
8861;SDS011;4799;50.996;4.754;2022-08-07T15:39:58;2.00;;;1.87;;
8861;SDS011;4799;50.996;4.754;2022-08-07T15:42:37;2.37;;;1.90;;
8861;SDS011;4799;50.996;4.754;2022-08-07T15:45:13;3.30;;;2.17;;
8861;SDS011;4799;50.996;4.754;2022-08-07T15:47:55;2.10;;;1.73;;
8861;SDS011;4799;50.996;4.754;2022-08-07T15:50:32;2.93;;;1.73;;
8861;SDS011;4799;50.996;4.754;2022-08-07T15:53:04;1.87;;;1.70;;
8861;SDS011;4799;50.996;4.754;2022-08-07T15:55:35;1.90;;;1.70;;
8861;SDS011;4799;50.996;4.754;2022-08-07T15:58:02;2.43;;;1.77;;
8861;SDS011;4799;50.996;4.754;2022-08-07T16:00:30;2.63;;;1.70;;
8861;SDS011;4799;50.996;4.754;2022-08-07T16:03:10;1.77;;;1.67;;
8861;SDS011;4799;50.996;4.754;2022-08-07T16:05:43;2.40;;;1.60;;
8861;SDS011;4799;50.996;4.754;2022-08-07T16:08:15;2.27;;;1.67;;
8861;SDS011;4799;50.996;4.754;2022-08-07T16:10:58;1.67;;;1.57;;
8861;SDS011;4799;50.996;4.754;2022-08-07T16:30:09;1.80;;;1.70;;
8861;SDS011;4799;50.996;4.754;2022-08-07T16:32:43;2.17;;;1.30;;
8861;SDS011;4799;50.996;4.754;2022-08-07T16:38:26;2.03;;;1.40;;
8861;SDS011;4799;50.996;4.754;2022-08-07T16:41:01;1.33;;;1.23;;
8861;SDS011;4799;50.996;4.754;2022-08-07T16:46:45;2.10;;;1.25;;
8861;SDS011;4799;50.996;4.754;2022-08-07T16:52:16;1.48;;;1.30;;
8861;SDS011;4799;50.996;4.754;2022-08-07T16:55:00;2.40;;;1.10;;
8861;SDS011;4799;50.996;4.754;2022-08-07T17:01:34;1.52;;;1.30;;
8861;SDS011;4799;50.996;4.754;2022-08-07T17:04:08;1.30;;;1.20;;
8861;SDS011;4799;50.996;4.754;2022-08-07T17:09:46;1.85;;;1.30;;
8861;SDS011;4799;50.996;4.754;2022-08-07T17:12:32;2.25;;;1.40;;
8861;SDS011;4799;50.996;4.754;2022-08-07T17:15:03;1.65;;;1.30;;
8861;SDS011;4799;50.996;4.754;2022-08-07T17:20:16;1.40;;;1.27;;
8861;SDS011;4799;50.996;4.754;2022-08-07T17:34:18;1.73;;;1.45;;
8861;SDS011;4799;50.996;4.754;2022-08-07T17:36:52;1.70;;;1.30;;
8861;SDS011;4799;50.996;4.754;2022-08-07T17:42:06;1.70;;;1.40;;
8861;SDS011;4799;50.996;4.754;2022-08-07T17:44:55;2.65;;;1.60;;
8861;SDS011;4799;50.996;4.754;2022-08-07T17:52:55;2.20;;;1.70;;
8861;SDS011;4799;50.996;4.754;2022-08-07T17:55:47;2.07;;;1.33;;
8861;SDS011;4799;50.996;4.754;2022-08-07T17:58:15;1.50;;;1.40;;
8861;SDS011;4799;50.996;4.754;2022-08-07T18:00:44;2.10;;;1.50;;
8861;SDS011;4799;50.996;4.754;2022-08-07T18:05:52;2.20;;;1.60;;
8861;SDS011;4799;50.996;4.754;2022-08-07T18:08:24;3.13;;;1.50;;
8861;SDS011;4799;50.996;4.754;2022-08-07T18:18:49;2.10;;;1.87;;
8861;SDS011;4799;50.996;4.754;2022-08-07T18:21:20;3.07;;;1.80;;
8861;SDS011;4799;50.996;4.754;2022-08-07T18:24:11;1.87;;;1.67;;
8861;SDS011;4799;50.996;4.754;2022-08-07T18:29:23;1.80;;;1.70;;
8861;SDS011;4799;50.996;4.754;2022-08-07T18:43:43;2.37;;;1.80;;
8861;SDS011;4799;50.996;4.754;2022-08-07T18:49:26;2.90;;;1.70;;
8861;SDS011;4799;50.996;4.754;2022-08-07T18:52:09;2.03;;;1.83;;
8861;SDS011;4799;50.996;4.754;2022-08-07T19:00:19;2.00;;;1.80;;
8861;SDS011;4799;50.996;4.754;2022-08-07T19:02:51;1.73;;;1.63;;
8861;SDS011;4799;50.996;4.754;2022-08-07T19:05:32;3.10;;;1.90;;
8861;SDS011;4799;50.996;4.754;2022-08-07T19:08:06;2.33;;;1.90;;
8861;SDS011;4799;50.996;4.754;2022-08-07T19:10:38;2.40;;;2.20;;
8861;SDS011;4799;50.996;4.754;2022-08-07T19:16:32;3.40;;;2.30;;
8861;SDS011;4799;50.996;4.754;2022-08-07T19:19:02;4.47;;;2.17;;
8861;SDS011;4799;50.996;4.754;2022-08-07T19:21:46;2.90;;;2.20;;
8861;SDS011;4799;50.996;4.754;2022-08-07T19:24:25;4.87;;;2.60;;
8861;SDS011;4799;50.996;4.754;2022-08-07T19:27:02;3.53;;;2.40;;
8861;SDS011;4799;50.996;4.754;2022-08-07T19:29:29;5.73;;;2.47;;
8861;SDS011;4799;50.996;4.754;2022-08-07T19:31:59;3.57;;;2.70;;
8861;SDS011;4799;50.996;4.754;2022-08-07T19:34:28;3.50;;;2.40;;
8861;SDS011;4799;50.996;4.754;2022-08-07T19:36:56;4.10;;;2.47;;
8861;SDS011;4799;50.996;4.754;2022-08-07T19:39:28;2.60;;;2.40;;
8861;SDS011;4799;50.996;4.754;2022-08-07T19:41:57;3.13;;;2.80;;
8861;SDS011;4799;50.996;4.754;2022-08-07T19:44:26;2.90;;;2.60;;
8861;SDS011;4799;50.996;4.754;2022-08-07T19:47:16;4.10;;;2.47;;
8861;SDS011;4799;50.996;4.754;2022-08-07T19:49:46;3.33;;;2.57;;